sensor_id;sensor_type;location;lat;lon;timestamp;temperature;humidity
66190;DHT22;52992;52.084;5.412;2023-12-20T00:02:16;10.60;80.50
66190;DHT22;52992;52.084;5.412;2023-12-20T00:04:43;10.60;80.10
66190;DHT22;52992;52.084;5.412;2023-12-20T00:07:10;10.60;80.10
66190;DHT22;52992;52.084;5.412;2023-12-20T00:09:37;10.60;80.30
66190;DHT22;52992;52.084;5.412;2023-12-20T00:12:04;10.50;80.00
66190;DHT22;52992;52.084;5.412;2023-12-20T00:14:31;10.50;79.90
66190;DHT22;52992;52.084;5.412;2023-12-20T00:16:58;10.50;79.60
66190;DHT22;52992;52.084;5.412;2023-12-20T00:19:25;10.50;79.70
66190;DHT22;52992;52.084;5.412;2023-12-20T00:21:52;10.40;79.50
66190;DHT22;52992;52.084;5.412;2023-12-20T00:24:19;10.40;79.50
66190;DHT22;52992;52.084;5.412;2023-12-20T00:26:47;10.40;79.40
66190;DHT22;52992;52.084;5.412;2023-12-20T00:29:14;10.30;79.50
66190;DHT22;52992;52.084;5.412;2023-12-20T00:31:41;10.30;79.20
66190;DHT22;52992;52.084;5.412;2023-12-20T00:34:08;10.30;79.20
66190;DHT22;52992;52.084;5.412;2023-12-20T00:36:35;10.30;79.20
66190;DHT22;52992;52.084;5.412;2023-12-20T00:39:02;10.30;79.40
66190;DHT22;52992;52.084;5.412;2023-12-20T00:41:29;10.20;79.10
66190;DHT22;52992;52.084;5.412;2023-12-20T00:43:56;10.30;79.30
66190;DHT22;52992;52.084;5.412;2023-12-20T00:46:23;10.20;79.20
66190;DHT22;52992;52.084;5.412;2023-12-20T00:48:50;10.10;79.20
66190;DHT22;52992;52.084;5.412;2023-12-20T00:51:17;10.20;78.90
66190;DHT22;52992;52.084;5.412;2023-12-20T00:53:44;10.20;78.80
66190;DHT22;52992;52.084;5.412;2023-12-20T00:56:12;10.10;79.10
66190;DHT22;52992;52.084;5.412;2023-12-20T00:58:39;10.10;79.00
66190;DHT22;52992;52.084;5.412;2023-12-20T01:01:06;10.10;78.90
66190;DHT22;52992;52.084;5.412;2023-12-20T01:03:33;10.10;79.00
66190;DHT22;52992;52.084;5.412;2023-12-20T01:06:00;10.00;78.60
66190;DHT22;52992;52.084;5.412;2023-12-20T01:08:27;10.00;78.60
66190;DHT22;52992;52.084;5.412;2023-12-20T01:10:54;10.00;78.60
66190;DHT22;52992;52.084;5.412;2023-12-20T01:13:21;10.00;78.40
66190;DHT22;52992;52.084;5.412;2023-12-20T01:15:48;9.90;79.20
66190;DHT22;52992;52.084;5.412;2023-12-20T01:18:15;9.90;78.60
66190;DHT22;52992;52.084;5.412;2023-12-20T01:20:42;9.90;78.70
66190;DHT22;52992;52.084;5.412;2023-12-20T01:23:09;9.90;78.70
66190;DHT22;52992;52.084;5.412;2023-12-20T01:25:36;9.90;78.60
66190;DHT22;52992;52.084;5.412;2023-12-20T01:28:03;9.90;78.90
66190;DHT22;52992;52.084;5.412;2023-12-20T01:30:30;9.90;79.00
66190;DHT22;52992;52.084;5.412;2023-12-20T01:32:58;9.90;78.70
66190;DHT22;52992;52.084;5.412;2023-12-20T01:35:25;9.80;78.60
66190;DHT22;52992;52.084;5.412;2023-12-20T01:37:51;9.80;79.30
66190;DHT22;52992;52.084;5.412;2023-12-20T01:40:19;9.90;79.30
66190;DHT22;52992;52.084;5.412;2023-12-20T01:42:46;9.90;79.00
66190;DHT22;52992;52.084;5.412;2023-12-20T01:45:13;9.90;79.10
66190;DHT22;52992;52.084;5.412;2023-12-20T01:47:40;9.90;78.70
66190;DHT22;52992;52.084;5.412;2023-12-20T01:50:08;9.90;78.80
66190;DHT22;52992;52.084;5.412;2023-12-20T01:52:35;9.90;78.80
66190;DHT22;52992;52.084;5.412;2023-12-20T01:55:03;9.80;78.50
66190;DHT22;52992;52.084;5.412;2023-12-20T01:57:37;9.80;78.70
66190;DHT22;52992;52.084;5.412;2023-12-20T02:00:05;9.80;78.90
66190;DHT22;52992;52.084;5.412;2023-12-20T02:02:33;9.80;79.40
66190;DHT22;52992;52.084;5.412;2023-12-20T02:05:00;9.80;78.90
66190;DHT22;52992;52.084;5.412;2023-12-20T02:07:30;9.80;78.50
66190;DHT22;52992;52.084;5.412;2023-12-20T02:09:57;9.80;79.50
66190;DHT22;52992;52.084;5.412;2023-12-20T02:12:24;9.90;79.30
66190;DHT22;52992;52.084;5.412;2023-12-20T02:14:51;9.90;79.20
66190;DHT22;52992;52.084;5.412;2023-12-20T02:17:19;9.90;79.10
66190;DHT22;52992;52.084;5.412;2023-12-20T02:19:46;9.90;78.90
66190;DHT22;52992;52.084;5.412;2023-12-20T02:22:13;9.90;79.30
66190;DHT22;52992;52.084;5.412;2023-12-20T02:24:41;10.00;79.20
66190;DHT22;52992;52.084;5.412;2023-12-20T02:27:08;10.00;79.00
66190;DHT22;52992;52.084;5.412;2023-12-20T02:29:35;10.00;79.00
66190;DHT22;52992;52.084;5.412;2023-12-20T02:32:02;10.10;79.10
66190;DHT22;52992;52.084;5.412;2023-12-20T02:34:29;10.10;79.20
66190;DHT22;52992;52.084;5.412;2023-12-20T02:36:56;10.10;79.00
66190;DHT22;52992;52.084;5.412;2023-12-20T02:39:23;10.10;79.40
66190;DHT22;52992;52.084;5.412;2023-12-20T02:41:50;10.10;78.60
66190;DHT22;52992;52.084;5.412;2023-12-20T02:44:17;10.10;78.90
66190;DHT22;52992;52.084;5.412;2023-12-20T02:46:44;10.00;78.90
66190;DHT22;52992;52.084;5.412;2023-12-20T02:49:11;10.00;78.80
66190;DHT22;52992;52.084;5.412;2023-12-20T02:51:38;10.00;79.20
66190;DHT22;52992;52.084;5.412;2023-12-20T02:54:05;10.00;79.30
66190;DHT22;52992;52.084;5.412;2023-12-20T02:56:33;10.00;79.10
66190;DHT22;52992;52.084;5.412;2023-12-20T02:59:00;10.10;79.40
66190;DHT22;52992;52.084;5.412;2023-12-20T03:01:28;10.10;79.20
66190;DHT22;52992;52.084;5.412;2023-12-20T03:03:55;10.10;79.20
66190;DHT22;52992;52.084;5.412;2023-12-20T03:06:22;10.10;78.90
66190;DHT22;52992;52.084;5.412;2023-12-20T03:08:49;10.10;79.30
66190;DHT22;52992;52.084;5.412;2023-12-20T03:11:16;10.10;79.20
66190;DHT22;52992;52.084;5.412;2023-12-20T03:13:43;10.10;79.30
66190;DHT22;52992;52.084;5.412;2023-12-20T03:16:11;10.10;79.40
66190;DHT22;52992;52.084;5.412;2023-12-20T03:18:38;10.20;79.10
66190;DHT22;52992;52.084;5.412;2023-12-20T03:21:05;10.20;79.20
66190;DHT22;52992;52.084;5.412;2023-12-20T03:23:32;10.20;79.10
66190;DHT22;52992;52.084;5.412;2023-12-20T03:26:00;10.20;78.90
66190;DHT22;52992;52.084;5.412;2023-12-20T03:28:27;10.20;78.70
66190;DHT22;52992;52.084;5.412;2023-12-20T03:30:55;10.30;78.90
66190;DHT22;52992;52.084;5.412;2023-12-20T03:33:22;10.20;78.80
66190;DHT22;52992;52.084;5.412;2023-12-20T03:35:49;10.20;78.60
66190;DHT22;52992;52.084;5.412;2023-12-20T03:38:16;10.20;78.80
66190;DHT22;52992;52.084;5.412;2023-12-20T03:40:43;10.20;79.20
66190;DHT22;52992;52.084;5.412;2023-12-20T03:43:10;10.20;79.10
66190;DHT22;52992;52.084;5.412;2023-12-20T03:45:37;10.20;79.10
66190;DHT22;52992;52.084;5.412;2023-12-20T03:48:04;10.20;79.10
66190;DHT22;52992;52.084;5.412;2023-12-20T03:50:32;10.20;79.10
66190;DHT22;52992;52.084;5.412;2023-12-20T03:52:59;10.20;79.10
66190;DHT22;52992;52.084;5.412;2023-12-20T03:55:26;10.20;79.30
66190;DHT22;52992;52.084;5.412;2023-12-20T03:57:53;10.20;79.10
66190;DHT22;52992;52.084;5.412;2023-12-20T04:00:20;10.20;78.70
66190;DHT22;52992;52.084;5.412;2023-12-20T04:02:47;10.10;78.90
66190;DHT22;52992;52.084;5.412;2023-12-20T04:05:14;10.20;79.20
66190;DHT22;52992;52.084;5.412;2023-12-20T04:07:41;10.10;79.20
66190;DHT22;52992;52.084;5.412;2023-12-20T04:10:08;10.20;79.60
66190;DHT22;52992;52.084;5.412;2023-12-20T04:12:35;10.20;79.80
66190;DHT22;52992;52.084;5.412;2023-12-20T04:15:02;10.20;79.50
66190;DHT22;52992;52.084;5.412;2023-12-20T04:17:35;10.20;79.10
66190;DHT22;52992;52.084;5.412;2023-12-20T04:20:03;10.20;79.10
66190;DHT22;52992;52.084;5.412;2023-12-20T04:22:31;10.20;79.40
66190;DHT22;52992;52.084;5.412;2023-12-20T04:24:58;10.20;79.40
66190;DHT22;52992;52.084;5.412;2023-12-20T04:27:25;10.10;79.40
66190;DHT22;52992;52.084;5.412;2023-12-20T04:29:52;10.10;79.60
66190;DHT22;52992;52.084;5.412;2023-12-20T04:32:18;10.10;79.90
66190;DHT22;52992;52.084;5.412;2023-12-20T04:34:46;10.10;80.10
66190;DHT22;52992;52.084;5.412;2023-12-20T04:37:13;10.20;79.90
66190;DHT22;52992;52.084;5.412;2023-12-20T04:39:40;10.20;79.90
66190;DHT22;52992;52.084;5.412;2023-12-20T04:42:08;10.20;80.00
66190;DHT22;52992;52.084;5.412;2023-12-20T04:44:35;10.30;79.70
66190;DHT22;52992;52.084;5.412;2023-12-20T04:47:02;10.30;79.70
66190;DHT22;52992;52.084;5.412;2023-12-20T04:49:29;10.40;79.60
66190;DHT22;52992;52.084;5.412;2023-12-20T04:51:56;10.30;79.50
66190;DHT22;52992;52.084;5.412;2023-12-20T04:54:23;10.40;79.80
66190;DHT22;52992;52.084;5.412;2023-12-20T04:56:50;10.40;79.70
66190;DHT22;52992;52.084;5.412;2023-12-20T04:59:17;10.40;79.60
66190;DHT22;52992;52.084;5.412;2023-12-20T05:01:44;10.50;79.70
66190;DHT22;52992;52.084;5.412;2023-12-20T05:04:11;10.50;79.70
66190;DHT22;52992;52.084;5.412;2023-12-20T05:06:38;10.50;79.40
66190;DHT22;52992;52.084;5.412;2023-12-20T05:09:05;10.50;79.30
66190;DHT22;52992;52.084;5.412;2023-12-20T05:11:32;10.50;79.50
66190;DHT22;52992;52.084;5.412;2023-12-20T05:13:59;10.50;80.10
66190;DHT22;52992;52.084;5.412;2023-12-20T05:16:26;10.60;79.50
66190;DHT22;52992;52.084;5.412;2023-12-20T05:18:53;10.50;79.50
66190;DHT22;52992;52.084;5.412;2023-12-20T05:21:20;10.60;79.60
66190;DHT22;52992;52.084;5.412;2023-12-20T05:23:47;10.60;79.40
66190;DHT22;52992;52.084;5.412;2023-12-20T05:26:13;10.60;79.50
66190;DHT22;52992;52.084;5.412;2023-12-20T05:28:40;10.60;79.30
66190;DHT22;52992;52.084;5.412;2023-12-20T05:31:07;10.60;79.40
66190;DHT22;52992;52.084;5.412;2023-12-20T05:33:35;10.60;79.50
66190;DHT22;52992;52.084;5.412;2023-12-20T05:36:02;10.70;79.70
66190;DHT22;52992;52.084;5.412;2023-12-20T05:38:28;10.70;79.20
66190;DHT22;52992;52.084;5.412;2023-12-20T05:40:55;10.70;79.20
66190;DHT22;52992;52.084;5.412;2023-12-20T05:43:22;10.70;79.20
66190;DHT22;52992;52.084;5.412;2023-12-20T05:45:49;10.70;79.20
66190;DHT22;52992;52.084;5.412;2023-12-20T05:48:16;10.60;79.00
66190;DHT22;52992;52.084;5.412;2023-12-20T05:50:43;10.60;79.40
66190;DHT22;52992;52.084;5.412;2023-12-20T05:53:10;10.60;80.00
66190;DHT22;52992;52.084;5.412;2023-12-20T05:55:37;10.60;79.10
66190;DHT22;52992;52.084;5.412;2023-12-20T05:58:03;10.70;79.10
66190;DHT22;52992;52.084;5.412;2023-12-20T06:00:31;10.60;79.30
66190;DHT22;52992;52.084;5.412;2023-12-20T06:02:58;10.70;79.30
66190;DHT22;52992;52.084;5.412;2023-12-20T06:05:25;10.60;78.70
66190;DHT22;52992;52.084;5.412;2023-12-20T06:07:53;10.60;79.00
66190;DHT22;52992;52.084;5.412;2023-12-20T06:10:21;10.60;79.10
66190;DHT22;52992;52.084;5.412;2023-12-20T06:12:49;10.60;79.00
66190;DHT22;52992;52.084;5.412;2023-12-20T06:15:18;10.70;78.90
66190;DHT22;52992;52.084;5.412;2023-12-20T06:17:45;10.60;79.00
66190;DHT22;52992;52.084;5.412;2023-12-20T06:20:14;10.70;79.00
66190;DHT22;52992;52.084;5.412;2023-12-20T06:22:41;10.70;78.80
66190;DHT22;52992;52.084;5.412;2023-12-20T06:25:08;10.70;79.10
66190;DHT22;52992;52.084;5.412;2023-12-20T06:27:35;10.70;78.70
66190;DHT22;52992;52.084;5.412;2023-12-20T06:30:02;10.70;78.90
66190;DHT22;52992;52.084;5.412;2023-12-20T06:32:30;10.60;78.60
66190;DHT22;52992;52.084;5.412;2023-12-20T06:34:56;10.60;78.50
66190;DHT22;52992;52.084;5.412;2023-12-20T06:37:23;10.60;78.80
66190;DHT22;52992;52.084;5.412;2023-12-20T06:39:50;10.60;78.70
66190;DHT22;52992;52.084;5.412;2023-12-20T06:42:18;10.60;78.60
66190;DHT22;52992;52.084;5.412;2023-12-20T06:44:45;10.60;78.60
66190;DHT22;52992;52.084;5.412;2023-12-20T06:47:12;10.60;78.70
66190;DHT22;52992;52.084;5.412;2023-12-20T06:49:40;10.70;78.70
66190;DHT22;52992;52.084;5.412;2023-12-20T06:52:07;10.70;78.70
66190;DHT22;52992;52.084;5.412;2023-12-20T06:54:34;10.70;78.40
66190;DHT22;52992;52.084;5.412;2023-12-20T06:57:01;10.70;78.60
66190;DHT22;52992;52.084;5.412;2023-12-20T06:59:29;10.70;78.70
66190;DHT22;52992;52.084;5.412;2023-12-20T07:01:56;10.70;78.50
66190;DHT22;52992;52.084;5.412;2023-12-20T07:04:24;10.70;78.50
66190;DHT22;52992;52.084;5.412;2023-12-20T07:06:51;10.70;78.50
66190;DHT22;52992;52.084;5.412;2023-12-20T07:09:19;10.70;78.30
66190;DHT22;52992;52.084;5.412;2023-12-20T07:11:45;10.70;78.60
66190;DHT22;52992;52.084;5.412;2023-12-20T07:14:12;10.70;78.50
66190;DHT22;52992;52.084;5.412;2023-12-20T07:16:39;10.70;78.50
66190;DHT22;52992;52.084;5.412;2023-12-20T07:19:07;10.70;78.30
66190;DHT22;52992;52.084;5.412;2023-12-20T07:21:34;10.70;78.50
66190;DHT22;52992;52.084;5.412;2023-12-20T07:24:01;10.70;78.10
66190;DHT22;52992;52.084;5.412;2023-12-20T07:26:28;10.70;78.40
66190;DHT22;52992;52.084;5.412;2023-12-20T07:28:55;10.70;78.70
66190;DHT22;52992;52.084;5.412;2023-12-20T07:31:22;10.70;78.50
66190;DHT22;52992;52.084;5.412;2023-12-20T07:33:50;10.70;78.40
66190;DHT22;52992;52.084;5.412;2023-12-20T07:36:19;10.70;78.30
66190;DHT22;52992;52.084;5.412;2023-12-20T07:38:46;10.80;78.20
66190;DHT22;52992;52.084;5.412;2023-12-20T07:41:13;10.80;78.10
66190;DHT22;52992;52.084;5.412;2023-12-20T07:43:42;10.80;78.20
66190;DHT22;52992;52.084;5.412;2023-12-20T07:46:09;10.80;78.00
66190;DHT22;52992;52.084;5.412;2023-12-20T07:48:36;10.80;78.20
66190;DHT22;52992;52.084;5.412;2023-12-20T07:51:06;10.80;78.30
66190;DHT22;52992;52.084;5.412;2023-12-20T07:53:35;10.90;78.20
66190;DHT22;52992;52.084;5.412;2023-12-20T07:56:02;10.90;78.20
66190;DHT22;52992;52.084;5.412;2023-12-20T07:58:29;10.90;78.00
66190;DHT22;52992;52.084;5.412;2023-12-20T08:01:16;10.90;78.30
66190;DHT22;52992;52.084;5.412;2023-12-20T08:03:45;11.00;77.90
66190;DHT22;52992;52.084;5.412;2023-12-20T08:06:13;11.00;77.80
66190;DHT22;52992;52.084;5.412;2023-12-20T08:08:40;11.00;77.70
66190;DHT22;52992;52.084;5.412;2023-12-20T08:11:09;11.10;78.00
66190;DHT22;52992;52.084;5.412;2023-12-20T08:13:36;11.10;77.90
66190;DHT22;52992;52.084;5.412;2023-12-20T08:16:03;11.10;77.60
66190;DHT22;52992;52.084;5.412;2023-12-20T08:18:32;11.00;77.30
66190;DHT22;52992;52.084;5.412;2023-12-20T08:20:59;11.00;77.80
66190;DHT22;52992;52.084;5.412;2023-12-20T08:23:27;11.00;77.80
66190;DHT22;52992;52.084;5.412;2023-12-20T08:25:56;10.90;77.70
66190;DHT22;52992;52.084;5.412;2023-12-20T08:28:23;11.10;77.90
66190;DHT22;52992;52.084;5.412;2023-12-20T08:30:49;11.10;77.80
66190;DHT22;52992;52.084;5.412;2023-12-20T08:33:20;11.10;77.80
66190;DHT22;52992;52.084;5.412;2023-12-20T08:35:47;11.10;77.70
66190;DHT22;52992;52.084;5.412;2023-12-20T08:38:14;11.10;78.00
66190;DHT22;52992;52.084;5.412;2023-12-20T08:40:41;11.10;77.70
66190;DHT22;52992;52.084;5.412;2023-12-20T08:43:08;11.10;77.40
66190;DHT22;52992;52.084;5.412;2023-12-20T08:45:35;11.10;77.80
66190;DHT22;52992;52.084;5.412;2023-12-20T08:48:03;11.10;77.60
66190;DHT22;52992;52.084;5.412;2023-12-20T08:50:33;11.00;77.80
66190;DHT22;52992;52.084;5.412;2023-12-20T08:53:00;11.10;78.00
66190;DHT22;52992;52.084;5.412;2023-12-20T08:55:27;11.20;78.00
66190;DHT22;52992;52.084;5.412;2023-12-20T08:57:56;11.20;77.90
66190;DHT22;52992;52.084;5.412;2023-12-20T09:00:23;11.20;77.50
66190;DHT22;52992;52.084;5.412;2023-12-20T09:02:52;11.20;77.10
66190;DHT22;52992;52.084;5.412;2023-12-20T09:05:19;11.10;77.50
66190;DHT22;52992;52.084;5.412;2023-12-20T09:07:47;11.10;78.10
66190;DHT22;52992;52.084;5.412;2023-12-20T09:10:14;11.10;78.00
66190;DHT22;52992;52.084;5.412;2023-12-20T09:12:45;11.20;77.70
66190;DHT22;52992;52.084;5.412;2023-12-20T09:15:14;11.20;77.70
66190;DHT22;52992;52.084;5.412;2023-12-20T09:17:41;11.20;77.70
66190;DHT22;52992;52.084;5.412;2023-12-20T09:20:09;11.20;77.40
66190;DHT22;52992;52.084;5.412;2023-12-20T09:22:37;11.20;77.40
66190;DHT22;52992;52.084;5.412;2023-12-20T09:25:05;11.20;77.40
66190;DHT22;52992;52.084;5.412;2023-12-20T09:27:32;11.20;77.60
66190;DHT22;52992;52.084;5.412;2023-12-20T09:29:59;11.20;77.60
66190;DHT22;52992;52.084;5.412;2023-12-20T09:32:26;11.30;77.70
66190;DHT22;52992;52.084;5.412;2023-12-20T09:34:53;11.30;77.70
66190;DHT22;52992;52.084;5.412;2023-12-20T09:37:20;11.40;77.30
66190;DHT22;52992;52.084;5.412;2023-12-20T09:39:47;11.40;76.90
66190;DHT22;52992;52.084;5.412;2023-12-20T09:42:19;11.40;77.00
66190;DHT22;52992;52.084;5.412;2023-12-20T09:44:48;11.50;77.20
66190;DHT22;52992;52.084;5.412;2023-12-20T09:47:16;11.50;76.70
66190;DHT22;52992;52.084;5.412;2023-12-20T09:49:45;11.50;77.70
66190;DHT22;52992;52.084;5.412;2023-12-20T09:52:13;11.50;76.70
66190;DHT22;52992;52.084;5.412;2023-12-20T09:54:41;11.60;77.00
66190;DHT22;52992;52.084;5.412;2023-12-20T09:57:09;11.60;77.00
66190;DHT22;52992;52.084;5.412;2023-12-20T09:59:37;11.70;76.80
66190;DHT22;52992;52.084;5.412;2023-12-20T10:02:07;11.70;76.50
66190;DHT22;52992;52.084;5.412;2023-12-20T10:04:35;11.70;76.80
66190;DHT22;52992;52.084;5.412;2023-12-20T10:07:02;11.70;77.00
66190;DHT22;52992;52.084;5.412;2023-12-20T10:09:34;11.80;76.60
66190;DHT22;52992;52.084;5.412;2023-12-20T10:12:01;11.80;76.50
66190;DHT22;52992;52.084;5.412;2023-12-20T10:14:28;11.80;76.30
66190;DHT22;52992;52.084;5.412;2023-12-20T10:17:02;11.80;76.50
66190;DHT22;52992;52.084;5.412;2023-12-20T10:19:29;11.80;76.90
66190;DHT22;52992;52.084;5.412;2023-12-20T10:21:57;11.80;76.60
66190;DHT22;52992;52.084;5.412;2023-12-20T10:24:24;11.90;76.50
66190;DHT22;52992;52.084;5.412;2023-12-20T10:27:07;12.00;76.70
66190;DHT22;52992;52.084;5.412;2023-12-20T10:29:35;12.00;76.10
66190;DHT22;52992;52.084;5.412;2023-12-20T10:32:27;12.00;76.00
66190;DHT22;52992;52.084;5.412;2023-12-20T10:34:55;11.90;75.80
66190;DHT22;52992;52.084;5.412;2023-12-20T10:37:23;12.00;76.40
66190;DHT22;52992;52.084;5.412;2023-12-20T10:39:54;12.00;76.50
66190;DHT22;52992;52.084;5.412;2023-12-20T10:42:26;12.00;76.10
66190;DHT22;52992;52.084;5.412;2023-12-20T10:44:53;12.00;76.10
66190;DHT22;52992;52.084;5.412;2023-12-20T10:47:20;12.10;76.30
66190;DHT22;52992;52.084;5.412;2023-12-20T10:49:47;12.10;76.00
66190;DHT22;52992;52.084;5.412;2023-12-20T10:52:16;12.10;76.10
66190;DHT22;52992;52.084;5.412;2023-12-20T10:54:44;12.20;75.80
66190;DHT22;52992;52.084;5.412;2023-12-20T10:57:12;12.20;75.20
66190;DHT22;52992;52.084;5.412;2023-12-20T10:59:39;12.20;75.70
66190;DHT22;52992;52.084;5.412;2023-12-20T11:02:07;12.30;75.60
66190;DHT22;52992;52.084;5.412;2023-12-20T11:04:44;12.40;75.50
66190;DHT22;52992;52.084;5.412;2023-12-20T11:07:22;12.50;75.40
66190;DHT22;52992;52.084;5.412;2023-12-20T11:10:20;12.60;75.00
66190;DHT22;52992;52.084;5.412;2023-12-20T11:12:52;12.80;74.80
66190;DHT22;52992;52.084;5.412;2023-12-20T11:15:21;12.90;73.90
66190;DHT22;52992;52.084;5.412;2023-12-20T11:17:55;12.90;73.30
66190;DHT22;52992;52.084;5.412;2023-12-20T11:20:36;12.80;73.30
66190;DHT22;52992;52.084;5.412;2023-12-20T11:23:03;13.10;73.50
66190;DHT22;52992;52.084;5.412;2023-12-20T11:28:13;13.30;72.10
66190;DHT22;52992;52.084;5.412;2023-12-20T11:30:53;13.20;72.60
66190;DHT22;52992;52.084;5.412;2023-12-20T11:33:24;13.10;72.80
66190;DHT22;52992;52.084;5.412;2023-12-20T11:35:57;13.10;73.30
66190;DHT22;52992;52.084;5.412;2023-12-20T11:38:26;13.10;73.00
66190;DHT22;52992;52.084;5.412;2023-12-20T11:40:54;13.20;72.50
66190;DHT22;52992;52.084;5.412;2023-12-20T11:43:34;13.10;72.30
66190;DHT22;52992;52.084;5.412;2023-12-20T11:46:06;13.10;72.50
66190;DHT22;52992;52.084;5.412;2023-12-20T11:48:38;12.90;72.30
66190;DHT22;52992;52.084;5.412;2023-12-20T11:51:13;12.90;73.20
66190;DHT22;52992;52.084;5.412;2023-12-20T11:53:41;12.90;73.80
66190;DHT22;52992;52.084;5.412;2023-12-20T11:56:11;13.00;73.60
66190;DHT22;52992;52.084;5.412;2023-12-20T11:58:39;13.00;73.30
66190;DHT22;52992;52.084;5.412;2023-12-20T12:01:06;13.00;72.50
66190;DHT22;52992;52.084;5.412;2023-12-20T12:03:35;12.90;72.80
66190;DHT22;52992;52.084;5.412;2023-12-20T12:06:03;12.90;72.70
66190;DHT22;52992;52.084;5.412;2023-12-20T12:08:32;12.90;72.90
66190;DHT22;52992;52.084;5.412;2023-12-20T12:10:59;12.80;72.50
66190;DHT22;52992;52.084;5.412;2023-12-20T12:13:26;12.80;73.20
66190;DHT22;52992;52.084;5.412;2023-12-20T12:15:55;12.70;74.00
66190;DHT22;52992;52.084;5.412;2023-12-20T12:18:23;12.70;73.20
66190;DHT22;52992;52.084;5.412;2023-12-20T12:20:50;12.60;72.80
66190;DHT22;52992;52.084;5.412;2023-12-20T12:23:23;12.60;73.50
66190;DHT22;52992;52.084;5.412;2023-12-20T12:25:54;12.50;73.50
66190;DHT22;52992;52.084;5.412;2023-12-20T12:28:26;12.60;74.00
66190;DHT22;52992;52.084;5.412;2023-12-20T12:30:59;12.60;74.00
66190;DHT22;52992;52.084;5.412;2023-12-20T12:33:26;12.70;74.20
66190;DHT22;52992;52.084;5.412;2023-12-20T12:35:54;12.80;72.70
66190;DHT22;52992;52.084;5.412;2023-12-20T12:38:21;12.80;72.50
66190;DHT22;52992;52.084;5.412;2023-12-20T12:40:49;12.80;73.20
66190;DHT22;52992;52.084;5.412;2023-12-20T12:43:16;12.80;74.40
66190;DHT22;52992;52.084;5.412;2023-12-20T12:45:43;12.70;73.30
66190;DHT22;52992;52.084;5.412;2023-12-20T12:48:10;12.80;73.70
66190;DHT22;52992;52.084;5.412;2023-12-20T12:50:37;12.90;73.60
66190;DHT22;52992;52.084;5.412;2023-12-20T12:53:04;12.90;72.90
66190;DHT22;52992;52.084;5.412;2023-12-20T12:55:32;12.90;73.30
66190;DHT22;52992;52.084;5.412;2023-12-20T12:57:59;12.90;73.50
66190;DHT22;52992;52.084;5.412;2023-12-20T13:00:26;12.90;72.90
66190;DHT22;52992;52.084;5.412;2023-12-20T13:02:53;12.90;72.00
66190;DHT22;52992;52.084;5.412;2023-12-20T13:05:20;12.80;72.60
66190;DHT22;52992;52.084;5.412;2023-12-20T13:07:47;12.80;72.80
66190;DHT22;52992;52.084;5.412;2023-12-20T13:10:15;12.80;73.00
66190;DHT22;52992;52.084;5.412;2023-12-20T13:12:43;12.80;72.90
66190;DHT22;52992;52.084;5.412;2023-12-20T13:15:10;12.80;73.20
66190;DHT22;52992;52.084;5.412;2023-12-20T13:17:37;12.80;72.80
66190;DHT22;52992;52.084;5.412;2023-12-20T13:20:05;12.70;73.30
66190;DHT22;52992;52.084;5.412;2023-12-20T13:22:33;12.70;73.30
66190;DHT22;52992;52.084;5.412;2023-12-20T13:25:00;12.80;73.50
66190;DHT22;52992;52.084;5.412;2023-12-20T13:27:29;12.70;73.10
66190;DHT22;52992;52.084;5.412;2023-12-20T13:29:56;12.70;72.70
66190;DHT22;52992;52.084;5.412;2023-12-20T13:32:23;12.70;73.20
66190;DHT22;52992;52.084;5.412;2023-12-20T13:34:50;12.70;72.80
66190;DHT22;52992;52.084;5.412;2023-12-20T13:37:17;12.60;72.90
66190;DHT22;52992;52.084;5.412;2023-12-20T13:39:45;12.60;73.00
66190;DHT22;52992;52.084;5.412;2023-12-20T13:42:12;12.70;73.20
66190;DHT22;52992;52.084;5.412;2023-12-20T13:44:39;12.70;73.40
66190;DHT22;52992;52.084;5.412;2023-12-20T13:47:06;12.70;72.60
66190;DHT22;52992;52.084;5.412;2023-12-20T13:49:34;12.70;72.80
66190;DHT22;52992;52.084;5.412;2023-12-20T13:52:02;12.70;72.90
66190;DHT22;52992;52.084;5.412;2023-12-20T13:54:30;12.80;72.10
66190;DHT22;52992;52.084;5.412;2023-12-20T13:56:57;12.80;72.20
66190;DHT22;52992;52.084;5.412;2023-12-20T13:59:38;12.80;71.20
66190;DHT22;52992;52.084;5.412;2023-12-20T14:02:05;12.90;72.00
66190;DHT22;52992;52.084;5.412;2023-12-20T14:04:32;12.90;71.60
66190;DHT22;52992;52.084;5.412;2023-12-20T14:07:09;12.90;71.80
66190;DHT22;52992;52.084;5.412;2023-12-20T14:09:37;12.90;71.60
66190;DHT22;52992;52.084;5.412;2023-12-20T14:12:05;13.00;71.50
66190;DHT22;52992;52.084;5.412;2023-12-20T14:14:32;12.90;71.20
66190;DHT22;52992;52.084;5.412;2023-12-20T14:16:58;12.90;71.60
66190;DHT22;52992;52.084;5.412;2023-12-20T14:19:25;12.90;71.40
66190;DHT22;52992;52.084;5.412;2023-12-20T14:21:53;12.80;71.50
66190;DHT22;52992;52.084;5.412;2023-12-20T14:24:20;12.70;71.80
66190;DHT22;52992;52.084;5.412;2023-12-20T14:26:47;12.70;71.70
66190;DHT22;52992;52.084;5.412;2023-12-20T14:29:14;12.70;71.50
66190;DHT22;52992;52.084;5.412;2023-12-20T14:31:41;12.70;71.90
66190;DHT22;52992;52.084;5.412;2023-12-20T14:34:08;12.60;71.60
66190;DHT22;52992;52.084;5.412;2023-12-20T14:36:35;12.60;71.70
66190;DHT22;52992;52.084;5.412;2023-12-20T14:39:02;12.60;71.90
66190;DHT22;52992;52.084;5.412;2023-12-20T14:41:31;12.70;72.00
66190;DHT22;52992;52.084;5.412;2023-12-20T14:43:58;12.60;71.50
66190;DHT22;52992;52.084;5.412;2023-12-20T14:46:26;12.70;71.70
66190;DHT22;52992;52.084;5.412;2023-12-20T14:48:55;12.60;71.40
66190;DHT22;52992;52.084;5.412;2023-12-20T14:51:22;12.70;71.30
66190;DHT22;52992;52.084;5.412;2023-12-20T14:53:49;12.60;71.40
66190;DHT22;52992;52.084;5.412;2023-12-20T14:56:16;12.60;71.40
66190;DHT22;52992;52.084;5.412;2023-12-20T14:58:43;12.60;71.70
66190;DHT22;52992;52.084;5.412;2023-12-20T15:01:10;12.60;72.10
66190;DHT22;52992;52.084;5.412;2023-12-20T15:03:37;12.60;72.00
66190;DHT22;52992;52.084;5.412;2023-12-20T15:06:06;12.60;72.10
66190;DHT22;52992;52.084;5.412;2023-12-20T15:08:33;12.60;71.80
66190;DHT22;52992;52.084;5.412;2023-12-20T15:11:01;12.60;72.30
66190;DHT22;52992;52.084;5.412;2023-12-20T15:13:30;12.60;71.90
66190;DHT22;52992;52.084;5.412;2023-12-20T15:15:58;12.50;72.10
66190;DHT22;52992;52.084;5.412;2023-12-20T15:18:25;12.60;72.30
66190;DHT22;52992;52.084;5.412;2023-12-20T15:20:52;12.50;72.00
66190;DHT22;52992;52.084;5.412;2023-12-20T15:23:19;12.50;72.50
66190;DHT22;52992;52.084;5.412;2023-12-20T15:25:46;12.50;72.30
66190;DHT22;52992;52.084;5.412;2023-12-20T15:28:13;12.50;72.50
66190;DHT22;52992;52.084;5.412;2023-12-20T15:30:40;12.40;72.20
66190;DHT22;52992;52.084;5.412;2023-12-20T15:33:07;12.50;72.40
66190;DHT22;52992;52.084;5.412;2023-12-20T15:35:34;12.40;72.40
66190;DHT22;52992;52.084;5.412;2023-12-20T15:38:01;12.40;72.30
66190;DHT22;52992;52.084;5.412;2023-12-20T15:40:29;12.40;72.50